Time;durP1;ratioP1;P1;durP2;ratioP2;P2;SDS_P1;SDS_P2;PMS_P1;PMS_P2;Temp;Humidity;BMP_temperature;BMP_pressure;BME280_temperature;BME280_humidity;BME280_pressure;Samples;Min_cycle;Max_cycle;Signal;HPM_P1;HPM_P2
2022/07/18 00:02:00;;;;;;;4.90;2.60;;;15.90;86.50;;;;;;5070034;28;20505;-47
2022/07/18 00:04:31;;;;;;;6.55;3.42;;;15.90;86.60;;;;;;5052723;28;20165;-50
2022/07/18 00:06:57;;;;;;;5.43;3.10;;;15.90;86.70;;;;;;5070989;28;20036;-46
2022/07/18 00:09:23;;;;;;;4.88;3.25;;;15.90;86.70;;;;;;5071100;28;20111;-47
2022/07/18 00:11:50;;;;;;;5.22;3.35;;;15.90;86.80;;;;;;5052772;28;20028;-46
2022/07/18 00:14:17;;;;;;;5.63;3.60;;;15.80;86.80;;;;;;5068506;28;20034;-48
2022/07/18 00:16:42;;;;;;;6.13;2.85;;;15.80;86.90;;;;;;5085106;28;20222;-47
2022/07/18 00:19:08;;;;;;;6.43;3.50;;;15.70;87.10;;;;;;5070765;28;20253;-51
2022/07/18 00:21:34;;;;;;;4.47;3.30;;;15.70;87.00;;;;;;5052925;28;20036;-46
2022/07/18 00:24:00;;;;;;;4.13;3.58;;;15.70;87.20;;;;;;5071220;28;20086;-46
2022/07/18 00:26:26;;;;;;;8.30;3.38;;;15.70;87.30;;;;;;5078132;28;20020;-47
2022/07/18 00:28:54;;;;;;;5.95;3.67;;;15.70;87.30;;;;;;5053091;28;20072;-48
2022/07/18 00:31:19;;;;;;;10.20;4.65;;;15.70;87.40;;;;;;5070499;28;20024;-46
2022/07/18 00:33:46;;;;;;;6.78;3.75;;;15.70;87.60;;;;;;5070052;28;20048;-46
2022/07/18 00:36:11;;;;;;;6.28;3.53;;;15.70;87.60;;;;;;5052158;28;20036;-47
2022/07/18 00:38:37;;;;;;;10.65;5.00;;;15.70;87.70;;;;;;5052589;28;20032;-48
2022/07/18 00:41:06;;;;;;;5.10;4.05;;;15.70;87.80;;;;;;5069533;28;20086;-47
2022/07/18 00:43:32;;;;;;;8.45;5.00;;;15.70;87.80;;;;;;5069964;28;20016;-45
2022/07/18 00:45:58;;;;;;;6.68;3.75;;;15.80;87.90;;;;;;5077179;28;20035;-46
2022/07/18 00:48:26;;;;;;;7.28;4.25;;;15.80;87.90;;;;;;5052138;28;20404;-45
2022/07/18 00:50:52;;;;;;;6.55;4.65;;;15.90;87.90;;;;;;5070241;28;20044;-46
2022/07/18 00:53:20;;;;;;;6.13;4.30;;;15.80;87.90;;;;;;5069904;28;20024;-46
2022/07/18 00:55:49;;;;;;;11.13;5.60;;;15.80;87.90;;;;;;5066564;28;20025;-46
2022/07/18 00:58:15;;;;;;;6.90;4.57;;;15.90;87.90;;;;;;5069938;28;20111;-46
2022/07/18 01:03:25;;;;;;;7.90;4.47;;;15.90;87.80;;;;;;5070066;28;20042;-46
2022/07/18 01:05:51;;;;;;;8.90;6.00;;;15.90;87.70;;;;;;5070139;28;20042;-46
2022/07/18 01:08:17;;;;;;;6.80;5.15;;;15.90;87.60;;;;;;5069943;28;20028;-46
2022/07/18 01:10:43;;;;;;;9.38;5.50;;;15.90;87.60;;;;;;5051888;28;20032;-46
2022/07/18 01:13:11;;;;;;;10.40;6.55;;;15.90;87.50;;;;;;5069951;28;20491;-48
2022/07/18 01:15:39;;;;;;;6.93;5.40;;;15.90;87.50;;;;;;5069478;28;20434;-46
2022/07/18 01:18:05;;;;;;;6.80;5.68;;;15.80;87.40;;;;;;5052129;28;20028;-46
2022/07/18 01:20:31;;;;;;;8.30;6.32;;;15.80;87.30;;;;;;5051650;28;20357;-49
2022/07/18 01:22:58;;;;;;;8.93;6.13;;;15.80;87.30;;;;;;5069612;28;20453;-45
2022/07/18 01:25:24;;;;;;;8.75;5.75;;;15.80;87.20;;;;;;5069372;28;20032;-47
2022/07/18 01:27:50;;;;;;;8.60;5.68;;;15.80;87.10;;;;;;5051474;28;20028;-46
2022/07/18 01:30:15;;;;;;;7.90;5.05;;;15.80;86.90;;;;;;5068786;28;20107;-46
2022/07/18 01:32:42;;;;;;;10.20;6.70;;;15.80;86.90;;;;;;5051702;28;20082;-49
2022/07/18 01:35:11;;;;;;;6.78;5.47;;;15.80;86.70;;;;;;5068971;28;20031;-46
2022/07/18 01:37:37;;;;;;;9.35;6.90;;;15.80;86.50;;;;;;5069385;28;20095;-50
2022/07/18 01:40:12;;;;;;;7.32;6.00;;;15.80;86.40;;;;;;5069176;28;20373;-47
2022/07/18 01:42:40;;;;;;;6.57;5.05;;;15.90;86.30;;;;;;5051793;28;20029;-47
2022/07/18 01:45:08;;;;;;;9.50;6.43;;;15.80;86.10;;;;;;5069005;28;20044;-47
2022/07/18 01:47:36;;;;;;;8.10;5.82;;;15.80;86.10;;;;;;5069509;28;20028;-46
2022/07/18 01:50:03;;;;;;;11.00;5.60;;;15.90;86.10;;;;;;5068916;28;20020;-48
2022/07/18 01:52:28;;;;;;;9.43;6.05;;;15.80;86.00;;;;;;5069400;28;20040;-49
2022/07/18 01:54:54;;;;;;;8.45;5.47;;;15.80;86.10;;;;;;5034975;28;20074;-47
2022/07/18 01:57:23;;;;;;;8.18;4.97;;;15.80;86.10;;;;;;5068895;28;20087;-45
2022/07/18 01:59:49;;;;;;;8.93;6.27;;;15.80;86.00;;;;;;5068770;28;20090;-46
2022/07/18 02:02:15;;;;;;;8.35;6.50;;;15.80;86.00;;;;;;5051651;28;20020;-47
2022/07/18 02:05:02;;;;;;;9.50;6.63;;;15.70;86.10;;;;;;5068995;28;20765;-48
2022/07/18 02:07:31;;;;;;;7.32;5.82;;;15.80;86.20;;;;;;5069109;28;20040;-46
2022/07/18 02:09:59;;;;;;;8.53;6.50;;;15.70;86.20;;;;;;5069273;28;20036;-48
2022/07/18 02:12:24;;;;;;;12.50;7.80;;;15.70;86.30;;;;;;5062142;28;20279;-50
2022/07/18 02:14:51;;;;;;;7.95;6.35;;;15.70;86.10;;;;;;5049249;28;20036;-46
2022/07/18 02:17:18;;;;;;;7.97;6.55;;;15.70;86.10;;;;;;5068966;28;20560;-47
2022/07/18 02:19:44;;;;;;;7.10;6.03;;;15.70;86.10;;;;;;5069110;28;20055;-46
2022/07/18 02:22:12;;;;;;;10.27;7.13;;;15.60;86.00;;;;;;5071974;28;20039;-45
2022/07/18 02:24:38;;;;;;;7.10;6.25;;;15.70;85.90;;;;;;5073067;28;20037;-46
2022/07/18 02:27:04;;;;;;;10.13;6.88;;;15.70;85.70;;;;;;5072712;28;20091;-46
2022/07/18 02:29:30;;;;;;;10.77;7.22;;;15.70;85.60;;;;;;5054962;28;20060;-47
2022/07/18 02:31:56;;;;;;;8.02;6.18;;;15.70;85.50;;;;;;5072044;28;20111;-46
2022/07/18 02:34:21;;;;;;;10.00;6.18;;;15.70;85.50;;;;;;5072372;28;20036;-46
2022/07/18 02:36:50;;;;;;;7.60;6.50;;;15.70;85.30;;;;;;5072772;28;20032;-46
2022/07/18 02:39:16;;;;;;;7.72;5.45;;;15.70;85.10;;;;;;5072643;28;20029;-46
2022/07/18 02:41:42;;;;;;;10.43;5.85;;;15.70;84.60;;;;;;5054562;28;20040;-46
2022/07/18 02:44:08;;;;;;;8.25;6.07;;;15.70;84.30;;;;;;5072387;28;20362;-46
2022/07/18 02:46:33;;;;;;;10.52;5.65;;;15.70;84.20;;;;;;5054606;28;20342;-47
2022/07/18 02:49:01;;;;;;;9.13;6.50;;;15.70;84.00;;;;;;5072396;28;20463;-45
2022/07/18 02:51:27;;;;;;;10.27;6.75;;;15.70;84.10;;;;;;5072845;28;20078;-45
2022/07/18 02:53:53;;;;;;;8.05;5.53;;;15.70;83.70;;;;;;5071899;28;20358;-44
2022/07/18 02:56:18;;;;;;;12.35;6.28;;;15.70;83.60;;;;;;5071960;28;20033;-46
2022/07/18 02:58:44;;;;;;;10.30;5.78;;;15.70;83.70;;;;;;5072041;28;20052;-48
2022/07/18 03:01:10;;;;;;;9.45;6.53;;;15.70;83.60;;;;;;5071874;28;20079;-46
2022/07/18 03:03:36;;;;;;;12.30;6.10;;;15.60;83.50;;;;;;5071915;28;20453;-46
2022/07/18 03:06:01;;;;;;;7.78;5.53;;;15.60;83.40;;;;;;5072567;28;20495;-46
2022/07/18 03:08:27;;;;;;;6.90;5.50;;;15.60;83.40;;;;;;5072233;28;20055;-45
2022/07/18 03:10:55;;;;;;;8.90;5.43;;;15.60;83.50;;;;;;5054148;28;20032;-44
2022/07/18 03:13:21;;;;;;;9.18;5.97;;;15.60;83.40;;;;;;5071943;28;20056;-44
2022/07/18 03:15:46;;;;;;;7.97;5.47;;;15.60;83.00;;;;;;5071733;28;20541;-45
2022/07/18 03:18:12;;;;;;;7.05;5.80;;;15.50;83.30;;;;;;5071671;28;20047;-50
2022/07/18 03:20:37;;;;;;;8.52;5.10;;;15.50;83.00;;;;;;5053832;28;20044;-47
2022/07/18 03:23:09;;;;;;;8.65;6.13;;;15.50;83.00;;;;;;5071504;28;20129;-45
2022/07/18 03:25:35;;;;;;;9.77;6.55;;;15.50;82.90;;;;;;5071241;28;20024;-46
2022/07/18 03:28:03;;;;;;;9.43;6.25;;;15.50;83.20;;;;;;5071380;28;20027;-47
2022/07/18 03:30:29;;;;;;;7.72;5.65;;;15.50;82.90;;;;;;5071205;28;20036;-45
2022/07/18 03:32:54;;;;;;;11.00;6.05;;;15.50;82.90;;;;;;5051940;28;20541;-47
2022/07/18 03:35:20;;;;;;;6.90;5.45;;;15.60;82.80;;;;;;5053309;28;20060;-49
2022/07/18 03:37:48;;;;;;;8.93;6.72;;;15.60;82.90;;;;;;5071671;28;20032;-48
2022/07/18 03:40:16;;;;;;;7.22;5.53;;;15.60;82.40;;;;;;5054178;28;20032;-48
2022/07/18 03:42:42;;;;;;;7.75;5.55;;;15.60;82.50;;;;;;5051860;28;20373;-46
2022/07/18 03:45:08;;;;;;;9.35;5.85;;;15.60;82.50;;;;;;5060740;28;20059;-46
2022/07/18 03:47:35;;;;;;;12.15;5.88;;;15.60;82.60;;;;;;5071239;28;20029;-48
2022/07/18 03:50:02;;;;;;;8.63;6.15;;;15.60;82.70;;;;;;5071330;28;20029;-46
2022/07/18 03:52:28;;;;;;;7.85;6.35;;;15.60;82.50;;;;;;5071653;28;20033;-46
2022/07/18 03:54:57;;;;;;;10.15;6.03;;;15.60;82.60;;;;;;5071276;28;20044;-50
2022/07/18 03:57:22;;;;;;;8.90;5.35;;;15.60;82.70;;;;;;5070985;28;20034;-48
2022/07/18 03:59:48;;;;;;;9.43;6.20;;;15.60;82.70;;;;;;5071483;28;20029;-49
2022/07/18 04:02:13;;;;;;;8.55;6.22;;;15.60;82.40;;;;;;5053195;28;20028;-48
2022/07/18 04:04:39;;;;;;;12.52;5.75;;;15.60;82.50;;;;;;5053227;28;20025;-46
2022/07/18 04:07:05;;;;;;;9.43;5.65;;;15.60;82.50;;;;;;5053292;28;20051;-48
2022/07/18 04:09:30;;;;;;;7.35;5.05;;;15.70;82.40;;;;;;5071132;28;20032;-46
2022/07/18 04:11:56;;;;;;;9.82;4.90;;;15.60;82.20;;;;;;5070904;28;20031;-48
2022/07/18 04:14:24;;;;;;;7.35;4.75;;;15.80;82.20;;;;;;5071230;28;20028;-49
2022/07/18 04:16:52;;;;;;;7.32;5.10;;;15.80;82.10;;;;;;5052700;28;20047;-49
2022/07/18 04:19:18;;;;;;;6.88;5.07;;;15.80;81.70;;;;;;5070027;28;20033;-50
2022/07/18 04:21:46;;;;;;;8.45;5.38;;;15.90;81.60;;;;;;5052820;28;20073;-48
2022/07/18 04:24:12;;;;;;;9.40;4.55;;;15.90;81.70;;;;;;5071290;28;20029;-48
2022/07/18 04:26:38;;;;;;;7.32;4.68;;;15.90;81.30;;;;;;5070270;28;20362;-50
2022/07/18 04:29:04;;;;;;;6.32;4.78;;;16.00;81.10;;;;;;5070679;28;20442;-47
2022/07/18 04:31:32;;;;;;;7.47;4.78;;;16.10;81.10;;;;;;5052934;28;20111;-48
2022/07/18 04:33:58;;;;;;;8.38;4.82;;;16.10;81.00;;;;;;5052655;28;20032;-47
2022/07/18 04:36:26;;;;;;;6.28;4.80;;;16.20;80.50;;;;;;5070092;28;20036;-47
2022/07/18 04:38:51;;;;;;;7.80;4.38;;;16.30;80.60;;;;;;5052858;28;20060;-46
2022/07/18 04:41:19;;;;;;;6.22;4.40;;;16.40;80.10;;;;;;5052013;28;20143;-48
2022/07/18 04:43:45;;;;;;;6.53;4.65;;;16.40;79.80;;;;;;5069557;28;20037;-48
2022/07/18 04:46:11;;;;;;;9.23;4.60;;;16.40;79.70;;;;;;5051769;28;20033;-46
2022/07/18 04:48:38;;;;;;;5.82;4.38;;;16.50;79.70;;;;;;5069988;28;20029;-46
2022/07/18 04:51:04;;;;;;;5.85;3.65;;;16.60;79.50;;;;;;5052223;28;20024;-48
2022/07/18 04:53:30;;;;;;;7.32;3.97;;;16.70;79.50;;;;;;5052640;28;20031;-46
2022/07/18 04:55:56;;;;;;;9.68;4.75;;;16.80;79.50;;;;;;5070118;28;20056;-48
2022/07/18 04:58:24;;;;;;;6.15;4.18;;;16.90;79.50;;;;;;5070148;28;20086;-48
2022/07/18 05:00:49;;;;;;;8.50;4.80;;;16.90;79.60;;;;;;5069623;28;20030;-51
2022/07/18 05:03:15;;;;;;;7.05;4.45;;;17.00;79.20;;;;;;5070160;28;20533;-50
2022/07/18 05:05:40;;;;;;;9.35;5.70;;;17.00;79.10;;;;;;5069097;28;20346;-46
2022/07/18 05:08:06;;;;;;;6.20;4.15;;;17.10;78.90;;;;;;5069218;28;20017;-47
2022/07/18 05:10:33;;;;;;;6.65;3.88;;;17.10;78.10;;;;;;5069342;28;20333;-48
2022/07/18 05:13:01;;;;;;;5.25;3.65;;;17.20;78.10;;;;;;5069255;28;20862;-47
2022/07/18 05:15:27;;;;;;;6.43;4.45;;;17.20;78.20;;;;;;5068761;28;20074;-49
2022/07/18 05:17:53;;;;;;;5.45;4.13;;;17.20;78.10;;;;;;5069252;28;20056;-47
2022/07/18 05:20:23;;;;;;;6.13;4.18;;;17.20;78.10;;;;;;5050859;28;20447;-49
2022/07/18 05:22:48;;;;;;;;;;;17.20;78.50;;;;;;5051916;28;20449;-47
2022/07/18 05:25:15;;;;;;;6.22;4.00;;;17.20;77.90;;;;;;5068784;28;19912;-46
2022/07/18 05:27:41;;;;;;;6.13;4.35;;;17.20;78.10;;;;;;5069566;28;20025;-48
2022/07/18 05:30:10;;;;;;;5.40;3.40;;;17.30;77.50;;;;;;5068635;28;20025;-46
2022/07/18 05:32:36;;;;;;;6.65;3.55;;;17.20;77.80;;;;;;5068268;28;20032;-49
2022/07/18 05:35:05;;;;;;;8.85;3.70;;;17.30;77.60;;;;;;5068918;28;20357;-48
2022/07/18 05:37:31;;;;;;;7.20;4.57;;;17.40;77.20;;;;;;5061631;28;20059;-49
2022/07/18 05:39:57;;;;;;;5.28;3.13;;;17.40;77.30;;;;;;5065624;28;20579;-48
2022/07/18 05:42:25;;;;;;;6.05;3.50;;;17.50;77.00;;;;;;5069018;28;20024;-48
2022/07/18 05:44:50;;;;;;;5.65;3.08;;;17.60;77.10;;;;;;5050841;28;20331;-51
2022/07/18 05:47:16;;;;;;;6.75;3.90;;;17.70;76.70;;;;;;5068510;28;20043;-48
2022/07/18 05:49:42;;;;;;;5.85;3.28;;;17.80;76.00;;;;;;5068610;28;20137;-46
2022/07/18 05:52:07;;;;;;;7.20;3.38;;;17.90;75.80;;;;;;5051157;28;20035;-51
2022/07/18 05:54:33;;;;;;;8.30;3.50;;;18.00;74.30;;;;;;5068907;28;20024;-52
2022/07/18 05:57:01;;;;;;;4.93;2.92;;;18.30;73.10;;;;;;5067758;28;20066;-49
2022/07/18 05:59:29;;;;;;;6.22;3.45;;;18.60;72.60;;;;;;5068840;28;20024;-47
2022/07/18 06:01:59;;;;;;;5.40;2.92;;;18.90;71.60;;;;;;5068686;28;20052;-49
2022/07/18 06:04:25;;;;;;;5.93;2.70;;;19.00;71.40;;;;;;5068098;28;20031;-50
2022/07/18 06:06:50;;;;;;;6.47;2.45;;;19.20;70.40;;;;;;5067233;28;20028;-50
2022/07/18 06:09:17;;;;;;;6.07;2.58;;;19.30;70.70;;;;;;5068198;28;20029;-52
2022/07/18 06:11:43;;;;;;;8.13;2.35;;;19.30;69.80;;;;;;5067729;28;20028;-47
2022/07/18 06:14:09;;;;;;;6.80;2.33;;;19.40;69.80;;;;;;5051037;28;20029;-47
2022/07/18 06:16:36;;;;;;;7.68;2.30;;;19.40;70.00;;;;;;5067127;28;20501;-48
2022/07/18 06:19:03;;;;;;;6.55;2.55;;;19.40;68.80;;;;;;5066878;28;20029;-52
2022/07/18 06:21:31;;;;;;;7.30;3.28;;;19.50;68.70;;;;;;5068021;28;20052;-47
2022/07/18 06:23:58;;;;;;;6.28;2.75;;;19.60;68.60;;;;;;5067273;28;20024;-51
2022/07/18 06:26:25;;;;;;;7.20;2.67;;;19.70;68.50;;;;;;5078024;28;20035;-50
2022/07/18 06:28:52;;;;;;;6.10;2.55;;;19.70;68.60;;;;;;5066681;28;20684;-49
2022/07/18 06:31:17;;;;;;;7.03;2.38;;;19.70;68.50;;;;;;5064853;28;20026;-51
2022/07/18 06:33:44;;;;;;;5.38;2.17;;;19.80;69.10;;;;;;5063021;28;20031;-47
2022/07/18 06:36:11;;;;;;;6.75;2.17;;;19.70;68.10;;;;;;5062527;28;20048;-48
2022/07/18 06:38:38;;;;;;;6.70;3.75;;;19.60;67.90;;;;;;5064391;28;20023;-47
2022/07/18 06:41:05;;;;;;;3.90;2.60;;;19.60;69.10;;;;;;5063519;28;20021;-49
2022/07/18 06:43:30;;;;;;;5.75;2.53;;;19.70;69.10;;;;;;5048059;28;20042;-48
2022/07/18 06:45:57;;;;;;;4.45;2.30;;;19.60;68.40;;;;;;5067652;28;20025;-47
2022/07/18 06:48:23;;;;;;;7.60;3.28;;;19.70;69.40;;;;;;5066372;28;20044;-50
2022/07/18 06:50:49;;;;;;;10.15;3.35;;;19.70;68.60;;;;;;5067225;28;20029;-48
2022/07/18 06:53:16;;;;;;;6.18;2.97;;;19.80;68.80;;;;;;5050430;28;20056;-49
2022/07/18 06:55:42;;;;;;;4.55;2.05;;;19.90;69.00;;;;;;5067298;28;20419;-47
2022/07/18 06:58:09;;;;;;;4.25;2.40;;;20.20;68.70;;;;;;5067765;28;21285;-46
2022/07/18 07:00:35;;;;;;;6.88;2.17;;;20.50;68.30;;;;;;5049323;28;20041;-49
2022/07/18 07:03:00;;;;;;;6.95;2.80;;;20.60;66.00;;;;;;5067050;28;20032;-48
2022/07/18 07:05:26;;;;;;;5.45;2.40;;;20.60;65.50;;;;;;5067238;28;20032;-50
2022/07/18 07:07:54;;;;;;;7.15;3.45;;;20.70;65.50;;;;;;5069541;28;20044;-49
2022/07/18 07:10:20;;;;;;;9.65;3.17;;;20.70;65.40;;;;;;5070635;28;20103;-49
2022/07/18 07:12:48;;;;;;;6.50;3.92;;;20.70;66.00;;;;;;5070777;28;20519;-48
2022/07/18 07:15:17;;;;;;;5.68;3.22;;;20.80;65.70;;;;;;5070690;28;20031;-50
2022/07/18 07:17:42;;;;;;;7.90;2.85;;;20.90;65.90;;;;;;5071424;28;20425;-47
2022/07/18 07:20:09;;;;;;;10.60;3.40;;;20.90;65.50;;;;;;5071300;28;20066;-49
2022/07/18 07:22:48;;;;;;;10.23;3.58;;;21.00;65.90;;;;;;5054320;28;20392;-47
2022/07/18 07:25:18;;;;;;;8.88;2.92;;;21.00;65.10;;;;;;5070687;28;20053;-49
2022/07/18 07:27:44;;;;;;;4.40;2.60;;;21.00;64.50;;;;;;5059448;28;20102;-47
2022/07/18 07:30:12;;;;;;;5.35;2.88;;;21.10;64.90;;;;;;5052927;28;20033;-47
2022/07/18 07:32:42;;;;;;;6.35;2.85;;;21.30;65.60;;;;;;5071059;28;20032;-47
2022/07/18 07:35:12;;;;;;;6.13;3.13;;;21.50;64.80;;;;;;5070735;28;20445;-50
2022/07/18 07:37:42;;;;;;;7.07;2.80;;;21.60;65.10;;;;;;5061713;28;20033;-48
2022/07/18 07:40:09;;;;;;;7.05;2.22;;;21.70;64.00;;;;;;5052365;28;20373;-47
2022/07/18 07:42:37;;;;;;;4.70;2.53;;;21.90;63.90;;;;;;5053523;28;20039;-47
2022/07/18 07:45:03;;;;;;;4.40;2.17;;;22.10;64.80;;;;;;5038193;28;20040;-47
2022/07/18 07:47:29;;;;;;;6.65;2.08;;;22.30;63.90;;;;;;5051156;28;20044;-48
2022/07/18 07:49:57;;;;;;;7.38;2.60;;;22.40;62.60;;;;;;5050839;28;20029;-49
2022/07/18 07:52:23;;;;;;;5.82;2.35;;;22.60;62.90;;;;;;5032827;28;20029;-47
2022/07/18 07:54:50;;;;;;;4.40;1.95;;;22.90;63.50;;;;;;5051278;28;20025;-47
2022/07/18 07:57:19;;;;;;;4.05;2.08;;;23.20;62.70;;;;;;5050413;28;20029;-47
2022/07/18 07:59:44;;;;;;;5.05;2.08;;;23.40;61.90;;;;;;5050766;28;20036;-49
2022/07/18 08:02:10;;;;;;;5.85;2.53;;;23.50;60.70;;;;;;5049576;28;20434;-49
2022/07/18 08:04:36;;;;;;;5.00;2.33;;;23.60;60.30;;;;;;5049953;28;20030;-51
2022/07/18 08:07:02;;;;;;;5.30;1.90;;;23.80;59.10;;;;;;5039191;28;20047;-48
2022/07/18 08:09:28;;;;;;;7.95;1.95;;;23.90;58.60;;;;;;5050187;28;20066;-51
2022/07/18 08:11:54;;;;;;;7.85;2.20;;;23.90;59.00;;;;;;5050711;28;20037;-49
2022/07/18 08:14:19;;;;;;;4.97;2.08;;;24.20;58.80;;;;;;5043511;28;20464;-47
2022/07/18 08:16:47;;;;;;;5.60;2.58;;;24.30;58.00;;;;;;5049640;28;20032;-47
2022/07/18 08:19:13;;;;;;;5.30;2.40;;;24.40;54.80;;;;;;5049222;28;20112;-47
2022/07/18 08:21:39;;;;;;;8.00;3.88;;;24.50;54.60;;;;;;5032795;28;20517;-46
2022/07/18 08:24:07;;;;;;;13.45;7.72;;;24.90;56.20;;;;;;5050391;28;20021;-50
2022/07/18 08:26:38;;;;;;;6.25;3.58;;;25.20;57.10;;;;;;5049694;28;20090;-47
2022/07/18 08:29:07;;;;;;;5.05;2.28;;;25.10;54.10;;;;;;5050304;28;20441;-48
2022/07/18 08:31:32;;;;;;;4.32;2.03;;;24.90;53.90;;;;;;5032029;28;20021;-50
2022/07/18 08:33:58;;;;;;;4.45;2.08;;;24.90;53.00;;;;;;5049868;28;20120;-47
2022/07/18 08:36:26;;;;;;;5.20;1.75;;;24.80;56.30;;;;;;5049816;28;20041;-51
2022/07/18 08:38:52;;;;;;;5.55;1.90;;;24.60;53.20;;;;;;5049636;28;20035;-47
2022/07/18 08:41:23;;;;;;;4.57;1.90;;;24.60;54.10;;;;;;5031234;28;20067;-51
2022/07/18 08:43:49;;;;;;;4.07;1.77;;;24.70;54.40;;;;;;5053451;28;20505;-49
2022/07/18 08:46:20;;;;;;;3.30;1.55;;;24.70;55.10;;;;;;5069256;28;20046;-49
2022/07/18 08:48:46;;;;;;;5.53;1.63;;;24.50;53.70;;;;;;5069304;28;20024;-47
2022/07/18 08:51:12;;;;;;;7.10;2.13;;;24.40;54.10;;;;;;5069646;28;20035;-46
2022/07/18 08:53:38;;;;;;;4.72;1.38;;;24.20;55.40;;;;;;5052210;28;20020;-48
2022/07/18 08:56:07;;;;;;;3.42;1.63;;;24.00;54.70;;;;;;5069445;28;20129;-47
2022/07/18 08:58:32;;;;;;;7.63;1.95;;;23.70;54.60;;;;;;5068622;28;20037;-51
2022/07/18 09:00:59;;;;;;;4.20;1.70;;;23.70;56.50;;;;;;5050957;28;20768;-47
2022/07/18 09:03:25;;;;;;;3.40;1.80;;;23.70;53.60;;;;;;5095761;28;20417;-48
2022/07/18 09:06:20;;;;;;;3.85;2.00;;;23.60;54.00;;;;;;5062791;28;20024;-48
2022/07/18 09:09:02;;;;;;;3.35;1.63;;;23.60;54.90;;;;;;5036901;28;20048;-47
2022/07/18 09:11:28;;;;;;;3.55;1.48;;;23.90;54.90;;;;;;5044685;28;20043;-52
2022/07/18 09:13:53;;;;;;;7.18;1.88;;;23.90;54.60;;;;;;5069442;28;20439;-47
2022/07/18 09:16:23;;;;;;;5.05;1.55;;;24.00;54.00;;;;;;5051229;28;20020;-47
2022/07/18 09:18:51;;;;;;;5.13;1.60;;;24.20;54.50;;;;;;5068518;28;20462;-46
2022/07/18 09:21:19;;;;;;;8.63;2.10;;;24.40;55.00;;;;;;5051425;28;20034;-47
2022/07/18 09:23:48;;;;;;;8.00;1.95;;;24.70;56.70;;;;;;5069068;28;20052;-47
2022/07/18 09:26:33;;;;;;;;;;;24.90;55.60;;;;;;5069053;28;20373;-48
2022/07/18 09:28:59;;;;;;;4.05;1.70;;;24.90;52.00;;;;;;5068536;28;19913;-49
2022/07/18 09:31:27;;;;;;;4.00;2.03;;;24.90;49.00;;;;;;5069014;28;20028;-47
2022/07/18 09:34:03;;;;;;;4.72;1.45;;;25.00;52.40;;;;;;5069185;28;20316;-47
2022/07/18 09:36:33;;;;;;;3.05;1.35;;;25.10;51.90;;;;;;5068751;28;20422;-47
2022/07/18 09:38:59;;;;;;;2.88;1.20;;;25.30;52.10;;;;;;5050015;28;20365;-48
2022/07/18 09:41:26;;;;;;;4.20;1.52;;;25.40;49.40;;;;;;5067933;28;20028;-47
2022/07/18 09:43:52;;;;;;;4.30;1.85;;;25.80;50.00;;;;;;5067522;28;20109;-47
2022/07/18 09:46:19;;;;;;;2.95;1.65;;;26.20;50.40;;;;;;5068584;28;20028;-47
2022/07/18 09:48:45;;;;;;;3.58;1.80;;;26.30;49.30;;;;;;5067865;28;20429;-47
2022/07/18 09:51:10;;;;;;;5.40;2.20;;;26.40;49.80;;;;;;5061461;28;20037;-50
2022/07/18 09:53:37;;;;;;;4.22;1.67;;;26.50;49.50;;;;;;5068310;28;20028;-48
2022/07/18 09:56:10;;;;;;;5.13;1.85;;;26.50;48.80;;;;;;5068777;28;20059;-47
2022/07/18 09:59:04;;;;;;;4.10;2.00;;;26.60;47.70;;;;;;5067684;28;20032;-50
2022/07/18 10:01:32;;;;;;;3.42;1.65;;;26.60;49.20;;;;;;5055265;28;20043;-53
2022/07/18 10:03:59;;;;;;;4.10;1.70;;;26.50;49.30;;;;;;5050249;28;20062;-48
2022/07/18 10:06:26;;;;;;;3.70;1.75;;;26.90;49.50;;;;;;5067631;28;20425;-48
2022/07/18 10:08:55;;;;;;;3.33;1.48;;;26.90;47.40;;;;;;5067753;28;20040;-47
2022/07/18 10:11:23;;;;;;;5.07;1.85;;;26.90;49.40;;;;;;5050774;28;20081;-47
2022/07/18 10:13:51;;;;;;;3.72;1.90;;;26.90;48.90;;;;;;5067898;28;20032;-47
2022/07/18 10:16:19;;;;;;;5.15;2.45;;;27.00;47.20;;;;;;5068379;28;20060;-48
2022/07/18 10:18:46;;;;;;;5.05;1.90;;;27.00;48.30;;;;;;5049347;28;20043;-47
2022/07/18 10:21:18;;;;;;;4.88;1.92;;;27.20;46.50;;;;;;5067150;28;20024;-47
2022/07/18 10:23:47;;;;;;;4.40;2.15;;;27.30;46.60;;;;;;5049305;28;20672;-50
2022/07/18 10:26:32;;;;;;;3.00;1.48;;;27.50;48.00;;;;;;5049808;28;20029;-47
2022/07/18 10:29:00;;;;;;;4.13;1.80;;;27.60;45.10;;;;;;5067464;28;20453;-48
2022/07/18 10:31:37;;;;;;;7.90;1.60;;;27.60;48.70;;;;;;5067200;28;20028;-49
2022/07/18 10:34:28;;;;;;;4.50;1.67;;;27.70;46.20;;;;;;5049872;28;20033;-49
2022/07/18 10:37:02;;;;;;;5.78;1.70;;;27.50;45.70;;;;;;5066769;28;20028;-50
2022/07/18 10:39:46;;;;;;;5.05;1.77;;;27.40;45.20;;;;;;5067910;28;20052;-48
2022/07/18 10:42:18;;;;;;;7.07;1.95;;;27.10;47.10;;;;;;5051286;28;20055;-49
2022/07/18 10:44:44;;;;;;;3.58;1.50;;;26.90;45.80;;;;;;5070578;28;20055;-49
2022/07/18 10:47:17;;;;;;;4.25;1.70;;;26.90;49.40;;;;;;5026016;28;20088;-47
2022/07/18 10:49:52;;;;;;;3.78;2.13;;;26.90;48.20;;;;;;5071623;28;20032;-47
2022/07/18 10:55:16;;;;;;;4.15;1.60;;;27.40;46.20;;;;;;5071496;28;20050;-49
2022/07/18 10:58:02;;;;;;;4.50;2.08;;;27.70;49.70;;;;;;5069910;28;20115;-51
2022/07/18 11:00:33;;;;;;;4.53;1.83;;;27.80;45.60;;;;;;5053761;28;20082;-49
2022/07/18 11:03:12;;;;;;;3.70;2.25;;;27.70;46.50;;;;;;5053339;28;20029;-51
2022/07/18 11:05:45;;;;;;;5.10;1.83;;;27.60;43.90;;;;;;5054058;28;20021;-51
2022/07/18 11:08:12;;;;;;;4.10;1.52;;;27.70;45.10;;;;;;5071574;28;20055;-49
2022/07/18 11:10:41;;;;;;;2.78;1.60;;;27.50;44.50;;;;;;5071126;28;20121;-47
2022/07/18 11:13:27;;;;;;;3.67;1.53;;;27.50;45.90;;;;;;5071526;28;20055;-50
2022/07/18 11:15:55;;;;;;;4.35;2.22;;;27.60;45.40;;;;;;5053755;28;20785;-49
2022/07/18 11:18:23;;;;;;;3.40;1.25;;;27.60;46.00;;;;;;5071130;28;20032;-48
2022/07/18 11:20:49;;;;;;;7.53;2.50;;;27.60;46.30;;;;;;5071349;28;20115;-49
2022/07/18 11:23:24;;;;;;;2.88;1.33;;;27.60;45.50;;;;;;5053774;28;20162;-53
2022/07/18 11:25:54;;;;;;;4.30;1.75;;;28.00;48.20;;;;;;5071252;28;20034;-48
2022/07/18 11:28:23;;;;;;;3.65;1.63;;;28.40;46.10;;;;;;5071525;28;20032;-53
2022/07/18 11:31:03;;;;;;;3.28;1.58;;;28.50;45.50;;;;;;5070939;28;20040;-49
2022/07/18 11:33:33;;;;;;;3.47;2.03;;;28.50;42.10;;;;;;5074360;28;20514;-47
2022/07/18 11:36:06;;;;;;;5.20;2.22;;;28.40;43.40;;;;;;5071332;28;20115;-50
2022/07/18 11:38:36;;;;;;;4.53;2.03;;;28.60;44.80;;;;;;5070944;28;20103;-48
2022/07/18 11:41:03;;;;;;;5.68;1.98;;;28.90;46.70;;;;;;5053286;28;20080;-54
2022/07/18 11:43:29;;;;;;;5.88;2.30;;;28.90;45.50;;;;;;5052260;28;20550;-47
2022/07/18 11:46:09;;;;;;;4.60;2.63;;;29.00;42.40;;;;;;5070735;28;20136;-48
2022/07/18 11:48:37;;;;;;;3.70;2.00;;;29.00;44.30;;;;;;5052923;28;20119;-47
2022/07/18 11:51:09;;;;;;;6.18;2.40;;;29.00;44.50;;;;;;5052767;28;20031;-48
2022/07/18 11:53:37;;;;;;;4.72;3.10;;;28.90;44.40;;;;;;5069247;28;20417;-49
2022/07/18 11:56:06;;;;;;;4.70;2.00;;;28.70;42.10;;;;;;5070631;28;20028;-48
2022/07/18 11:58:37;;;;;;;5.05;2.75;;;28.80;41.90;;;;;;5052782;28;20095;-47
2022/07/18 12:01:03;;;;;;;4.35;2.03;;;28.80;39.50;;;;;;5069836;28;20044;-47
2022/07/18 12:03:30;;;;;;;6.15;2.92;;;28.80;42.00;;;;;;5036584;28;20032;-52
2022/07/18 12:05:56;;;;;;;4.38;2.15;;;28.90;42.70;;;;;;5070238;28;20035;-51
2022/07/18 12:08:36;;;;;;;4.10;2.25;;;28.80;41.90;;;;;;5070143;28;20029;-47
2022/07/18 12:11:28;;;;;;;4.18;2.50;;;28.60;41.20;;;;;;5051678;28;20028;-50
2022/07/18 12:13:55;;;;;;;4.75;2.65;;;28.30;40.60;;;;;;5071095;28;20750;-47
2022/07/18 12:16:37;;;;;;;7.03;3.20;;;28.20;41.90;;;;;;5070331;28;20125;-54
2022/07/18 12:19:16;;;;;;;5.85;2.58;;;27.90;41.30;;;;;;5052928;28;20040;-52
2022/07/18 12:21:56;;;;;;;5.93;2.80;;;27.90;42.50;;;;;;5070567;28;20059;-48
2022/07/18 12:24:31;;;;;;;5.78;2.95;;;28.20;44.20;;;;;;5070705;28;20368;-50
2022/07/18 12:27:09;;;;;;;4.53;2.70;;;28.30;42.10;;;;;;5052602;28;20028;-49
2022/07/18 12:30:11;;;;;;;6.30;3.10;;;28.50;41.10;;;;;;5070640;28;20028;-47
2022/07/18 12:32:43;;;;;;;6.35;3.20;;;28.60;43.20;;;;;;5070078;28;20052;-51
2022/07/18 12:35:18;;;;;;;5.07;3.08;;;28.50;42.70;;;;;;5052514;28;20050;-48
2022/07/18 12:37:56;;;;;;;5.57;3.17;;;28.20;42.10;;;;;;5052210;28;20052;-48
2022/07/18 12:40:23;;;;;;;6.13;3.10;;;27.90;39.90;;;;;;5070003;28;20020;-53
2022/07/18 12:42:49;;;;;;;6.05;3.55;;;28.00;42.20;;;;;;5069356;28;20138;-53
2022/07/18 12:45:15;;;;;;;5.25;3.70;;;27.90;37.30;;;;;;5069653;28;20492;-49
2022/07/18 12:47:41;;;;;;;5.35;3.58;;;28.00;39.20;;;;;;5070004;28;20046;-49
2022/07/18 12:50:11;;;;;;;6.03;3.35;;;28.20;41.10;;;;;;5069849;28;20044;-50
2022/07/18 12:52:37;;;;;;;5.38;3.50;;;28.40;39.20;;;;;;5052457;28;20128;-48
2022/07/18 12:55:03;;;;;;;6.30;3.50;;;28.30;38.40;;;;;;5069726;28;20615;-51
2022/07/18 12:57:29;;;;;;;7.10;3.67;;;28.20;41.00;;;;;;5069845;28;20058;-50